createdAt,value
2023-05-10T00:02:27.945Z,7.30
2023-05-10T00:07:30.969Z,7.10
2023-05-10T00:12:33.765Z,6.70
2023-05-10T00:17:36.649Z,6.80
2023-05-10T00:22:39.541Z,6.80
2023-05-10T00:27:42.391Z,6.40
2023-05-10T00:32:45.378Z,7.00
2023-05-10T00:37:48.567Z,6.20
2023-05-10T00:42:51.561Z,6.50
2023-05-10T00:47:56.391Z,5.40
2023-05-10T00:53:00.619Z,5.80
2023-05-10T00:58:03.653Z,5.60
2023-05-10T01:03:06.875Z,6.10
2023-05-10T01:08:09.935Z,5.80
2023-05-10T01:13:13.213Z,6.00
2023-05-10T01:18:16.661Z,5.40
2023-05-10T01:24:07.644Z,5.70
2023-05-10T01:29:19.268Z,5.40
2023-05-10T01:34:26.429Z,5.60
2023-05-10T01:39:33.649Z,5.00
2023-05-10T01:45:03.291Z,5.30
2023-05-10T01:50:09.905Z,5.20
2023-05-10T01:55:17.069Z,5.00
2023-05-10T02:00:19.943Z,5.10
2023-05-10T02:05:22.856Z,4.80
2023-05-10T02:10:25.925Z,4.90
2023-05-10T02:15:28.774Z,4.60
2023-05-10T02:20:31.488Z,4.80
2023-05-10T02:25:34.337Z,4.70
2023-05-10T02:30:37.212Z,5.40
2023-05-10T02:35:40.092Z,5.00
2023-05-10T02:40:43.626Z,4.60
2023-05-10T02:45:48.253Z,4.90
2023-05-10T02:50:52.471Z,4.70
2023-05-10T02:55:55.310Z,4.80
2023-05-10T03:00:58.149Z,5.00
2023-05-10T03:06:01.027Z,4.40
2023-05-10T03:11:50.622Z,5.10
2023-05-10T03:22:30.222Z,4.90
2023-05-10T03:27:33.452Z,4.90
2023-05-10T03:32:36.875Z,4.90
2023-05-10T03:37:39.987Z,4.70
2023-05-10T03:42:42.866Z,4.90
2023-05-10T03:47:45.610Z,6.20
2023-05-10T03:52:49.047Z,5.10
2023-05-10T03:57:51.816Z,5.00
2023-05-10T04:02:54.622Z,5.00
2023-05-10T04:07:57.469Z,5.00
2023-05-10T04:13:00.619Z,5.00
2023-05-10T04:18:03.623Z,4.80
2023-05-10T04:23:06.614Z,5.30
2023-05-10T04:28:09.703Z,5.20
2023-05-10T04:33:12.512Z,4.80
2023-05-10T04:38:15.216Z,4.90
2023-05-10T04:43:18.103Z,4.40
2023-05-10T04:48:21.006Z,4.90
2023-05-10T04:53:23.788Z,4.50
2023-05-10T04:58:27.056Z,4.30
2023-05-10T05:03:29.880Z,4.10
2023-05-10T05:08:33.040Z,4.20
2023-05-10T05:13:35.933Z,4.00
2023-05-10T05:18:39.895Z,4.20
2023-05-10T05:23:42.656Z,3.70
2023-05-10T05:28:45.486Z,3.50
2023-05-10T05:33:48.395Z,3.50
2023-05-10T05:38:51.176Z,3.50
2023-05-10T05:43:54.005Z,3.60
2023-05-10T05:48:56.907Z,3.60
2023-05-10T05:54:00.033Z,3.60
2023-05-10T05:59:03.029Z,3.30
2023-05-10T06:04:05.898Z,3.30
2023-05-10T06:09:09.752Z,3.40
2023-05-10T06:14:12.700Z,2.90
2023-05-10T06:19:15.559Z,3.20
2023-05-10T06:24:18.370Z,2.60
2023-05-10T06:29:21.199Z,3.00
2023-05-10T06:34:24.500Z,2.60
2023-05-10T06:39:27.382Z,3.10
2023-05-10T06:44:30.101Z,2.30
2023-05-10T06:49:37.026Z,3.00
2023-05-10T06:54:39.894Z,2.40
2023-05-10T06:59:43.349Z,2.50
2023-05-10T07:04:46.315Z,2.70
2023-05-10T07:09:50.755Z,2.30
2023-05-10T07:14:53.602Z,2.50
2023-05-10T07:19:56.371Z,2.10
2023-05-10T07:24:59.477Z,2.40
2023-05-10T07:30:02.591Z,2.80
2023-05-10T07:35:06.529Z,2.30
2023-05-10T07:40:10.105Z,1.90
2023-05-10T07:45:12.901Z,1.70
2023-05-10T07:50:16.475Z,2.00
2023-05-10T07:55:19.881Z,1.90
2023-05-10T08:00:22.724Z,1.70
2023-05-10T08:05:25.514Z,2.30
2023-05-10T08:10:28.536Z,1.80
2023-05-10T08:15:31.349Z,1.80
2023-05-10T08:20:34.225Z,1.60
2023-05-10T08:25:39.018Z,1.60
2023-05-10T08:30:41.829Z,2.30
2023-05-10T08:35:44.641Z,2.00
2023-05-10T08:40:47.857Z,1.80
2023-05-10T08:45:50.863Z,1.60
2023-05-10T08:50:57.710Z,1.60
2023-05-10T08:56:01.934Z,1.80
2023-05-10T09:01:08.631Z,1.90
2023-05-10T09:06:12.851Z,1.70
2023-05-10T09:11:15.563Z,1.90
2023-05-10T09:16:21.640Z,1.90
2023-05-10T09:21:25.919Z,1.70
2023-05-10T09:26:28.919Z,1.70
2023-05-10T09:31:55.680Z,1.50
2023-05-10T09:37:03.765Z,1.70
2023-05-10T09:42:08.739Z,1.60
2023-05-10T09:47:19.510Z,1.80
2023-05-10T09:52:22.365Z,1.80
2023-05-10T11:08:47.134Z,1.40
2023-05-10T11:13:51.217Z,1.80
2023-05-10T11:19:03.095Z,2.00
2023-05-10T11:24:14.434Z,1.50
2023-05-10T11:29:17.297Z,4.30
2023-05-10T11:34:31.466Z,2.10
2023-05-10T11:39:34.818Z,1.90
2023-05-10T11:44:37.684Z,1.70
2023-05-10T11:49:40.682Z,1.90
2023-05-10T11:54:53.682Z,1.70
2023-05-10T11:59:57.488Z,2.10
2023-05-10T12:05:00.574Z,1.60
2023-05-10T12:10:11.495Z,1.80
2023-05-10T12:15:22.496Z,1.50
2023-05-10T12:20:25.561Z,1.70
2023-05-10T12:25:36.819Z,1.70
2023-05-10T12:30:39.835Z,1.90
2023-05-10T12:35:53.499Z,1.30
2023-05-10T12:40:59.475Z,1.80
2023-05-10T12:46:13.315Z,1.70
2023-05-10T12:51:18.511Z,1.70
2023-05-10T12:56:21.566Z,2.10
2023-05-10T13:01:24.355Z,1.90
2023-05-10T13:06:27.152Z,1.60
2023-05-10T13:11:30.012Z,1.30
2023-05-10T13:16:33.474Z,1.40
2023-05-10T13:21:36.945Z,1.40
2023-05-10T13:31:42.955Z,1.30
2023-05-10T13:36:46.131Z,1.30
2023-05-10T13:41:49.199Z,1.40
2023-05-10T13:46:52.096Z,1.20
2023-05-10T13:51:55.033Z,1.10
2023-05-10T13:56:57.867Z,1.50
2023-05-10T14:07:04.687Z,1.30
2023-05-10T14:17:12.120Z,1.10
2023-05-10T14:22:15.330Z,1.20
2023-05-10T14:27:18.052Z,1.30
2023-05-10T14:32:20.910Z,1.30
2023-05-10T14:37:23.846Z,1.10
2023-05-10T14:42:26.791Z,1.30
2023-05-10T14:47:29.770Z,1.60
2023-05-10T14:52:34.280Z,1.10
2023-05-10T14:57:37.425Z,1.50
2023-05-10T15:02:40.294Z,2.00
2023-05-10T15:07:45.126Z,1.30
2023-05-10T15:12:47.918Z,1.50
2023-05-10T15:17:50.684Z,1.30
2023-05-10T15:22:53.551Z,1.50
2023-05-10T15:27:56.522Z,1.40
2023-05-10T15:32:59.502Z,1.30
2023-05-10T15:38:02.534Z,1.50
2023-05-10T15:43:06.292Z,1.50
2023-05-10T15:48:09.076Z,1.50
2023-05-10T15:53:11.899Z,1.50
2023-05-10T15:58:14.667Z,1.30
2023-05-10T16:03:17.509Z,1.50
2023-05-10T16:08:20.351Z,1.30
2023-05-10T16:13:23.261Z,1.30
2023-05-10T16:18:26.216Z,1.50
2023-05-10T16:23:29.296Z,1.30
2023-05-10T16:28:32.434Z,1.20
2023-05-10T16:33:35.228Z,1.40
2023-05-10T16:38:38.391Z,1.40
2023-05-10T16:43:41.134Z,1.40
2023-05-10T16:48:43.898Z,1.50
2023-05-10T16:53:46.659Z,1.40
2023-05-10T16:58:50.068Z,1.40
2023-05-10T17:03:52.980Z,2.80
2023-05-10T17:08:55.876Z,1.70
2023-05-10T17:13:59.614Z,1.50
2023-05-10T17:19:02.738Z,1.60
2023-05-10T17:24:05.720Z,1.50
2023-05-10T17:29:08.505Z,1.70
2023-05-10T17:34:11.680Z,1.70
2023-05-10T17:39:14.416Z,2.00
2023-05-10T17:44:17.182Z,1.70
2023-05-10T17:49:19.959Z,1.70
2023-05-10T17:54:22.683Z,1.70
2023-05-10T17:59:25.587Z,1.80
2023-05-10T18:04:28.542Z,1.80
2023-05-10T18:09:31.843Z,1.90
2023-05-10T18:14:40.726Z,1.80
2023-05-10T18:19:44.322Z,2.10
2023-05-10T18:24:47.184Z,2.20
2023-05-10T18:29:49.957Z,2.50
2023-05-10T18:34:54.956Z,2.30
2023-05-10T18:39:58.587Z,2.60
2023-05-10T18:45:01.346Z,2.40
2023-05-10T18:50:07.669Z,2.50
2023-05-10T18:55:10.598Z,2.20
2023-05-10T19:00:13.640Z,2.30
2023-05-10T19:05:16.703Z,2.70
2023-05-10T19:10:19.860Z,2.90
2023-05-10T19:15:22.976Z,2.90
2023-05-10T19:20:26.079Z,3.10
2023-05-10T19:25:32.885Z,3.10
2023-05-10T19:30:36.522Z,3.20
2023-05-10T19:35:40.074Z,3.50
2023-05-10T19:40:43.333Z,3.00
2023-05-10T19:45:46.081Z,3.70
2023-05-10T19:50:48.857Z,3.50
2023-05-10T19:55:51.590Z,3.60
2023-05-10T20:00:54.377Z,3.30
2023-05-10T20:05:57.141Z,3.80
2023-05-10T20:11:02.569Z,3.70
2023-05-10T20:16:06.261Z,3.70
2023-05-10T20:21:09.096Z,4.40
2023-05-10T20:26:12.505Z,4.40
2023-05-10T20:31:15.289Z,5.10
2023-05-10T20:36:18.104Z,4.80
2023-05-10T20:41:20.927Z,5.00
2023-05-10T20:46:23.773Z,5.00
2023-05-10T20:51:27.233Z,5.00
2023-05-10T20:56:31.130Z,5.00
2023-05-10T21:01:33.958Z,5.00
2023-05-10T21:06:36.839Z,5.10
2023-05-10T21:11:39.687Z,5.20
2023-05-10T21:16:42.454Z,5.60
2023-05-10T21:21:45.478Z,5.30
2023-05-10T21:26:48.293Z,5.30
2023-05-10T21:31:51.466Z,5.20
2023-05-10T21:36:54.402Z,4.70
2023-05-10T21:41:57.398Z,5.10
2023-05-10T21:47:00.109Z,4.70
2023-05-10T21:52:02.891Z,4.10
2023-05-10T21:57:05.584Z,4.30
2023-05-10T22:02:08.411Z,4.30
2023-05-10T22:07:11.491Z,3.80
2023-05-10T22:12:14.470Z,3.70
2023-05-10T22:17:17.355Z,4.00
2023-05-10T22:22:20.085Z,3.80
2023-05-10T22:27:22.830Z,3.70
2023-05-10T22:32:25.659Z,3.90
2023-05-10T22:37:28.417Z,3.80
2023-05-10T22:42:31.144Z,3.20
2023-05-10T22:47:33.985Z,4.40
2023-05-10T22:52:38.878Z,3.20
2023-05-10T22:57:41.650Z,3.90
2023-05-10T23:02:44.777Z,3.60
2023-05-10T23:07:52.909Z,3.30
2023-05-10T23:12:56.145Z,3.50
2023-05-10T23:18:02.569Z,2.90
2023-05-10T23:23:05.420Z,3.70
2023-05-10T23:28:08.113Z,4.00
2023-05-10T23:33:10.995Z,3.70
2023-05-10T23:38:13.909Z,3.40
2023-05-10T23:43:17.753Z,3.50
2023-05-10T23:48:20.890Z,3.20
2023-05-10T23:53:23.628Z,3.30
2023-05-10T23:58:26.355Z,3.90
